Time;durP1;ratioP1;P1;durP2;ratioP2;P2;SDS_P1;SDS_P2;PMS_P1;PMS_P2;Temp;Humidity;BMP_temperature;BMP_pressure;BME280_temperature;BME280_humidity;BME280_pressure;Samples;Min_cycle;Max_cycle;Signal;HPM_P1;HPM_P2
2021/03/05 00:00:49;;;;;;;53.17;27.08;;;8.80;94.80;;;;;;5033983;28;20471;-79
2021/03/05 00:03:15;;;;;;;50.65;26.58;;;8.80;94.40;;;;;;5017292;28;20124;-79
2021/03/05 00:05:43;;;;;;;56.25;26.50;;;8.80;94.60;;;;;;5033397;28;20053;-79
2021/03/05 00:08:10;;;;;;;49.72;29.00;;;8.70;94.90;;;;;;5016112;28;20030;-79
2021/03/05 00:10:39;;;;;;;43.92;25.83;;;8.70;94.90;;;;;;5033648;28;20029;-79
2021/03/05 00:13:05;;;;;;;60.10;29.10;;;8.70;95.00;;;;;;5033906;28;20036;-79
2021/03/05 00:15:33;;;;;;;58.40;28.60;;;8.60;95.20;;;;;;5033863;28;20033;-79
2021/03/05 00:18:00;;;;;;;52.13;29.02;;;8.70;95.30;;;;;;5033740;28;20029;-78
2021/03/05 00:20:28;;;;;;;50.30;29.35;;;8.70;95.30;;;;;;5016120;28;20056;-79
2021/03/05 00:22:54;;;;;;;56.67;28.73;;;8.60;95.40;;;;;;5033051;28;20056;-80
2021/03/05 00:25:20;;;;;;;53.85;28.98;;;8.60;95.50;;;;;;5015673;28;20726;-79
2021/03/05 00:27:47;;;;;;;52.47;29.75;;;8.60;95.60;;;;;;5033166;28;20083;-79
2021/03/05 00:30:13;;;;;;;56.33;30.58;;;8.60;95.80;;;;;;5032943;28;20041;-80
2021/03/05 00:32:39;;;;;;;51.10;29.70;;;8.50;95.90;;;;;;5033333;28;20049;-79
2021/03/05 00:35:08;;;;;;;60.83;33.00;;;8.60;96.10;;;;;;5033286;28;20454;-79
2021/03/05 00:37:34;;;;;;;53.63;29.38;;;8.60;96.20;;;;;;5025394;28;20463;-79
2021/03/05 00:40:00;;;;;;;56.35;30.48;;;8.60;96.30;;;;;;5033396;28;20029;-79
2021/03/05 00:42:25;;;;;;;55.95;30.75;;;8.60;96.40;;;;;;5033495;28;20039;-80
2021/03/05 00:44:51;;;;;;;56.25;32.05;;;8.70;96.50;;;;;;5031943;28;20044;-79
2021/03/05 00:47:17;;;;;;;56.30;31.83;;;8.70;96.30;;;;;;5033122;28;20025;-79
2021/03/05 00:49:42;;;;;;;60.83;31.65;;;8.60;96.20;;;;;;5016575;28;20033;-79
2021/03/05 00:52:08;;;;;;;57.78;31.30;;;8.70;96.40;;;;;;5033158;28;20083;-78
2021/03/05 00:54:34;;;;;;;62.92;32.17;;;8.70;96.30;;;;;;5034698;28;20064;-78
2021/03/05 00:57:00;;;;;;;56.50;30.65;;;8.60;96.40;;;;;;5052943;28;20462;-78
2021/03/05 00:59:25;;;;;;;55.78;30.50;;;8.60;96.40;;;;;;5032170;28;20034;-78
2021/03/05 01:01:51;;;;;;;58.13;32.50;;;8.50;96.70;;;;;;5033111;28;20036;-78
2021/03/05 01:04:17;;;;;;;54.72;30.20;;;8.50;96.90;;;;;;5033102;28;20029;-79
2021/03/05 01:06:42;;;;;;;60.33;31.17;;;8.50;97.10;;;;;;5032822;28;20376;-79
2021/03/05 01:09:08;;;;;;;57.20;31.13;;;8.50;97.30;;;;;;5021837;28;20432;-79
2021/03/05 01:11:34;;;;;;;55.50;30.65;;;8.50;97.30;;;;;;5016030;28;20105;-79
2021/03/05 01:14:00;;;;;;;57.22;31.40;;;8.50;97.30;;;;;;5032775;28;20100;-78
2021/03/05 01:16:26;;;;;;;57.03;31.35;;;8.50;97.30;;;;;;5032850;28;20387;-79
2021/03/05 01:18:52;;;;;;;58.38;32.35;;;8.60;97.40;;;;;;5032794;28;20025;-78
2021/03/05 01:21:18;;;;;;;60.42;31.40;;;8.50;97.30;;;;;;5015168;28;20388;-78
2021/03/05 01:23:44;;;;;;;55.55;30.27;;;8.50;97.40;;;;;;5032781;28;20049;-79
2021/03/05 01:26:10;;;;;;;60.08;32.22;;;8.50;97.50;;;;;;5032653;28;20030;-79
2021/03/05 01:28:37;;;;;;;58.95;32.67;;;8.50;97.80;;;;;;5032311;28;20083;-79
2021/03/05 01:31:03;;;;;;;62.33;32.08;;;8.50;97.70;;;;;;5014894;28;20467;-79
2021/03/05 01:33:29;;;;;;;58.47;32.33;;;8.40;98.10;;;;;;5032746;28;20026;-79
2021/03/05 01:35:54;;;;;;;59.90;32.75;;;8.40;98.10;;;;;;5032701;28;20029;-79
2021/03/05 01:38:20;;;;;;;56.90;31.13;;;8.30;98.40;;;;;;5014772;28;20028;-79
2021/03/05 01:40:46;;;;;;;62.25;34.45;;;8.40;98.40;;;;;;5014915;28;20471;-79
2021/03/05 01:43:17;;;;;;;59.08;31.90;;;8.40;98.50;;;;;;5032669;28;20423;-80
2021/03/05 01:45:44;;;;;;;66.53;32.78;;;8.40;98.50;;;;;;5032482;28;20030;-79
2021/03/05 01:48:15;;;;;;;62.45;33.20;;;8.40;98.50;;;;;;5032311;28;20382;-79
2021/03/05 01:50:49;;;;;;;58.78;31.77;;;8.40;98.60;;;;;;5032454;28;20018;-78
2021/03/05 01:53:16;;;;;;;57.42;32.88;;;8.40;98.70;;;;;;5032513;28;20021;-79
2021/03/05 01:55:41;;;;;;;65.47;34.75;;;8.30;98.80;;;;;;5014763;28;20394;-79
2021/03/05 01:58:07;;;;;;;60.72;33.25;;;8.30;99.00;;;;;;5014690;28;20029;-79
2021/03/05 02:00:44;;;;;;;59.38;33.03;;;8.30;99.00;;;;;;5032431;28;20471;-79
2021/03/05 02:03:10;;;;;;;59.33;34.92;;;8.30;99.30;;;;;;5032445;28;20025;-79
2021/03/05 02:05:37;;;;;;;64.55;34.38;;;8.30;99.20;;;;;;5016324;28;20120;-79
2021/03/05 02:08:04;;;;;;;63.13;34.83;;;8.30;99.30;;;;;;5035376;28;20029;-79
2021/03/05 02:10:30;;;;;;;57.95;32.95;;;8.30;99.30;;;;;;5018293;28;20033;-79
2021/03/05 02:12:56;;;;;;;58.70;32.65;;;8.30;99.40;;;;;;5035900;28;20033;-79
2021/03/05 02:15:23;;;;;;;65.07;33.45;;;8.30;99.50;;;;;;5018421;28;20033;-79
2021/03/05 02:17:55;;;;;;;60.55;32.50;;;8.20;99.60;;;;;;5018138;28;20033;-79
2021/03/05 02:20:36;;;;;;;59.33;33.40;;;8.20;99.70;;;;;;5018290;28;20145;-79
2021/03/05 02:23:39;;;;;;;63.28;34.65;;;8.30;99.70;;;;;;5018258;28;20422;-79
2021/03/05 02:26:14;;;;;;;58.65;32.65;;;8.20;99.90;;;;;;5018110;28;20028;-79
2021/03/05 02:29:03;;;;;;;64.43;34.60;;;8.20;99.90;;;;;;5035592;28;20040;-79
2021/03/05 02:31:43;;;;;;;58.72;34.53;;;8.20;99.90;;;;;;5035572;28;20035;-79
2021/03/05 02:34:12;;;;;;;63.92;35.80;;;8.20;99.90;;;;;;5017962;28;20029;-79
2021/03/05 02:36:49;;;;;;;59.85;32.83;;;8.20;99.90;;;;;;5034448;28;20120;-79
2021/03/05 02:39:19;;;;;;;61.13;33.05;;;8.20;99.90;;;;;;5035334;28;20029;-78
2021/03/05 02:41:51;;;;;;;55.40;31.95;;;8.20;99.90;;;;;;5035403;28;20475;-79
2021/03/05 02:44:23;;;;;;;64.22;33.80;;;8.20;99.90;;;;;;5035643;28;20029;-79
2021/03/05 02:46:52;;;;;;;60.60;33.35;;;8.20;99.90;;;;;;5017545;28;20076;-79
2021/03/05 02:49:20;;;;;;;58.80;33.67;;;8.20;99.90;;;;;;5022233;28;20039;-79
2021/03/05 02:51:47;;;;;;;63.17;32.17;;;8.20;99.90;;;;;;5035461;28;20554;-79
2021/03/05 02:54:15;;;;;;;59.65;32.60;;;8.20;99.90;;;;;;5017594;28;20026;-79
2021/03/05 02:56:45;;;;;;;61.40;33.60;;;8.20;99.90;;;;;;5034982;28;20084;-79
2021/03/05 02:59:13;;;;;;;64.63;32.47;;;8.30;99.90;;;;;;5017553;28;20607;-78
2021/03/05 03:01:44;;;;;;;54.17;31.15;;;8.30;99.90;;;;;;5035291;28;20479;-79
2021/03/05 03:04:11;;;;;;;61.92;33.25;;;8.20;99.90;;;;;;5034561;28;20108;-79
2021/03/05 03:06:37;;;;;;;62.35;32.78;;;8.20;99.90;;;;;;5017031;28;20059;-79
2021/03/05 03:09:04;;;;;;;60.85;31.50;;;8.20;99.90;;;;;;5035180;28;20028;-79
2021/03/05 03:11:32;;;;;;;62.05;30.67;;;8.10;99.90;;;;;;5035021;28;20113;-79
2021/03/05 03:13:59;;;;;;;65.60;32.08;;;8.10;99.90;;;;;;5020403;28;20060;-79
2021/03/05 03:16:26;;;;;;;54.67;30.40;;;8.10;99.90;;;;;;5034306;28;20025;-78
2021/03/05 03:18:52;;;;;;;54.42;30.70;;;8.10;99.90;;;;;;5034917;28;20043;-79
2021/03/05 03:21:20;;;;;;;52.17;30.10;;;8.20;99.90;;;;;;5034625;28;20381;-79
2021/03/05 03:23:46;;;;;;;57.33;30.02;;;8.20;99.90;;;;;;5016752;28;20044;-79
2021/03/05 03:26:11;;;;;;;53.15;28.55;;;8.20;99.90;;;;;;5016698;28;20025;-79
2021/03/05 03:28:37;;;;;;;52.90;28.88;;;8.30;99.90;;;;;;5033887;28;20068;-79
2021/03/05 03:31:05;;;;;;;54.95;28.67;;;8.30;99.90;;;;;;5034543;28;20025;-79
2021/03/05 03:33:31;;;;;;;61.15;31.10;;;8.30;99.90;;;;;;5034145;28;20029;-79
2021/03/05 03:36:00;;;;;;;51.30;27.50;;;8.40;99.90;;;;;;5034607;28;20041;-79
2021/03/05 03:38:25;;;;;;;55.60;28.95;;;8.30;99.90;;;;;;5033535;28;20119;-79
2021/03/05 03:40:51;;;;;;;52.65;28.17;;;8.30;99.90;;;;;;5034124;28;20053;-79
2021/03/05 03:43:17;;;;;;;53.22;26.90;;;8.40;99.90;;;;;;5033864;28;20034;-79
2021/03/05 03:45:43;;;;;;;55.78;27.13;;;8.40;99.90;;;;;;5033815;28;20026;-79
2021/03/05 03:48:09;;;;;;;50.13;27.40;;;8.40;99.90;;;;;;5033869;28;20030;-78
2021/03/05 03:51:06;;;;;;;51.40;26.23;;;8.40;99.90;;;;;;5034171;28;20030;-78
2021/03/05 03:53:35;;;;;;;48.70;25.58;;;8.50;99.90;;;;;;5034327;28;20101;-79
2021/03/05 03:56:05;;;;;;;51.70;25.80;;;8.50;99.90;;;;;;5032812;28;20032;-79
2021/03/05 03:58:31;;;;;;;54.35;24.40;;;8.50;99.90;;;;;;5034176;28;20666;-79
2021/03/05 04:01:02;;;;;;;42.30;23.70;;;8.50;99.90;;;;;;5034118;28;20087;-79
2021/03/05 04:03:33;;;;;;;47.00;22.38;;;8.60;99.90;;;;;;5033829;28;20029;-79
2021/03/05 04:05:59;;;;;;;39.92;22.33;;;8.60;99.90;;;;;;5016234;28;20031;-79
2021/03/05 04:08:25;;;;;;;40.05;21.35;;;8.60;99.90;;;;;;5033925;28;20646;-79
2021/03/05 04:10:52;;;;;;;43.15;20.75;;;8.60;99.90;;;;;;5016082;28;20030;-79
2021/03/05 04:13:18;;;;;;;34.35;20.48;;;8.70;99.90;;;;;;5033961;28;20430;-79
2021/03/05 04:15:44;;;;;;;45.22;21.10;;;8.70;99.90;;;;;;5033871;28;20478;-79
2021/03/05 04:18:10;;;;;;;34.95;19.80;;;8.70;99.90;;;;;;5033375;28;20064;-79
2021/03/05 04:20:38;;;;;;;41.60;20.25;;;8.70;99.90;;;;;;5025696;28;20104;-79
2021/03/05 04:23:05;;;;;;;37.08;20.15;;;8.70;99.90;;;;;;5032450;28;20112;-79
2021/03/05 04:25:32;;;;;;;35.33;18.35;;;8.70;99.90;;;;;;5032161;28;20037;-78
2021/03/05 04:27:57;;;;;;;34.25;19.27;;;8.70;99.90;;;;;;5032999;28;20550;-79
2021/03/05 04:30:24;;;;;;;40.80;18.63;;;8.70;99.90;;;;;;5032797;28;20117;-79
2021/03/05 04:32:49;;;;;;;32.70;17.67;;;8.70;99.90;;;;;;5033398;28;20021;-78
2021/03/05 04:35:15;;;;;;;32.75;17.55;;;8.70;99.90;;;;;;5015707;28;20033;-79
2021/03/05 04:37:41;;;;;;;33.75;17.55;;;8.70;99.90;;;;;;5033228;28;20492;-78
2021/03/05 04:40:08;;;;;;;29.40;17.23;;;8.70;99.90;;;;;;5015484;28;21032;-78
2021/03/05 04:42:34;;;;;;;31.25;17.27;;;8.70;99.90;;;;;;5015623;28;20025;-79
2021/03/05 04:45:00;;;;;;;30.33;17.25;;;8.70;99.90;;;;;;5033299;28;20089;-78
2021/03/05 04:47:26;;;;;;;32.88;18.70;;;8.70;99.90;;;;;;5015408;28;20022;-79
2021/03/05 04:49:52;;;;;;;36.95;17.50;;;8.70;99.90;;;;;;5033170;28;20026;-79
2021/03/05 04:52:17;;;;;;;36.97;17.30;;;8.70;99.90;;;;;;5033137;28;20076;-79
2021/03/05 04:54:43;;;;;;;32.60;17.48;;;8.70;99.90;;;;;;5015409;28;20017;-79
2021/03/05 04:57:09;;;;;;;33.63;17.73;;;8.70;99.90;;;;;;5015346;28;20041;-78
2021/03/05 04:59:34;;;;;;;33.47;16.55;;;8.70;99.90;;;;;;5032907;28;20037;-79
2021/03/05 05:02:00;;;;;;;31.23;18.23;;;8.70;99.90;;;;;;5032879;28;20026;-79
2021/03/05 05:04:26;;;;;;;33.25;18.17;;;8.70;99.90;;;;;;5032762;28;20503;-79
2021/03/05 05:06:51;;;;;;;43.05;19.83;;;8.70;99.90;;;;;;5015077;28;20032;-79
2021/03/05 05:09:21;;;;;;;43.40;19.92;;;8.70;99.90;;;;;;5015276;28;20040;-79
2021/03/05 05:11:47;;;;;;;33.10;18.92;;;8.60;99.90;;;;;;5032770;28;20510;-79
2021/03/05 05:14:13;;;;;;;39.05;19.20;;;8.60;99.90;;;;;;5030972;28;20041;-79
2021/03/05 05:16:39;;;;;;;34.65;19.30;;;8.60;99.90;;;;;;5023459;28;20037;-79
2021/03/05 05:19:05;;;;;;;31.48;18.50;;;8.60;99.70;;;;;;5031673;28;20029;-79
2021/03/05 05:21:30;;;;;;;42.80;19.58;;;8.60;99.60;;;;;;5032588;28;20022;-79
2021/03/05 05:23:57;;;;;;;37.28;19.73;;;8.60;99.50;;;;;;5032668;28;20025;-79
2021/03/05 05:26:22;;;;;;;44.30;23.50;;;8.50;99.80;;;;;;5032387;28;20021;-79
2021/03/05 05:28:48;;;;;;;42.65;23.30;;;8.40;99.90;;;;;;5031413;28;20064;-78
2021/03/05 05:31:14;;;;;;;47.72;23.67;;;8.30;99.90;;;;;;5032804;28;20044;-78
2021/03/05 05:33:39;;;;;;;45.65;23.67;;;8.30;99.90;;;;;;5031339;28;20021;-79
2021/03/05 05:36:05;;;;;;;40.72;24.38;;;8.20;99.90;;;;;;5015000;28;20502;-78
2021/03/05 05:38:31;;;;;;;46.45;25.80;;;8.10;99.90;;;;;;5032158;28;20645;-78
2021/03/05 05:41:03;;;;;;;47.65;25.80;;;8.00;99.90;;;;;;5030728;28;20120;-78
2021/03/05 05:43:31;;;;;;;;;;;8.00;99.90;;;;;;5019112;28;20080;-79
2021/03/05 05:46:05;;;;;;;54.22;30.23;;;8.00;99.90;;;;;;5018515;28;19913;-79
2021/03/05 05:48:36;;;;;;;55.67;30.50;;;7.80;99.90;;;;;;5036395;28;20053;-79
2021/03/05 05:51:16;;;;;;;55.40;29.27;;;7.80;99.90;;;;;;5036184;28;20445;-79
2021/03/05 05:53:45;;;;;;;54.05;27.55;;;7.70;99.90;;;;;;5034403;28;20479;-79
2021/03/05 05:56:16;;;;;;;47.15;25.70;;;7.70;99.90;;;;;;5018453;28;20031;-79
2021/03/05 05:58:42;;;;;;;51.22;25.48;;;7.70;99.90;;;;;;5036163;28;20067;-79
2021/03/05 06:01:08;;;;;;;49.80;26.02;;;7.80;99.90;;;;;;5035924;28;20039;-79
2021/03/05 06:03:35;;;;;;;44.45;24.73;;;7.70;99.90;;;;;;5036182;28;20029;-79
2021/03/05 06:06:00;;;;;;;45.47;26.15;;;7.60;99.90;;;;;;5018389;28;20029;-79
2021/03/05 06:08:28;;;;;;;44.80;25.40;;;7.60;99.90;;;;;;5018442;28;20099;-79
2021/03/05 06:10:54;;;;;;;46.35;25.38;;;7.50;99.90;;;;;;5036143;28;20025;-79
2021/03/05 06:13:20;;;;;;;49.58;25.38;;;7.50;99.90;;;;;;5035601;28;20096;-79
2021/03/05 06:16:16;;;;;;;50.03;24.30;;;7.50;99.90;;;;;;5018211;28;20033;-79
2021/03/05 06:18:43;;;;;;;39.00;24.23;;;7.50;99.90;;;;;;5035941;28;20032;-79
2021/03/05 06:21:10;;;;;;;40.25;22.20;;;7.50;99.90;;;;;;5035705;28;20037;-78
2021/03/05 06:23:55;;;;;;;48.55;24.55;;;7.50;99.90;;;;;;5035588;28;20045;-79
2021/03/05 06:26:21;;;;;;;51.28;26.42;;;7.30;99.90;;;;;;5035719;28;20040;-78
2021/03/05 06:29:05;;;;;;;49.67;25.33;;;7.20;99.90;;;;;;5017970;28;20053;-78
2021/03/05 06:31:31;;;;;;;48.70;27.58;;;7.30;99.90;;;;;;5035523;28;20434;-79
2021/03/05 06:34:02;;;;;;;54.33;26.75;;;7.30;99.90;;;;;;5034333;28;20025;-78
2021/03/05 06:36:28;;;;;;;50.53;27.13;;;7.40;99.90;;;;;;5035407;28;20029;-79
2021/03/05 06:38:54;;;;;;;54.85;30.48;;;7.50;99.90;;;;;;5035549;28;20037;-78
2021/03/05 06:41:25;;;;;;;60.03;28.67;;;7.40;99.90;;;;;;5034996;28;20749;-78
2021/03/05 06:43:56;;;;;;;53.70;29.75;;;7.40;99.90;;;;;;5034834;28;20025;-78
2021/03/05 06:46:41;;;;;;;60.97;28.58;;;7.50;99.90;;;;;;5029579;28;20036;-78
2021/03/05 06:49:11;;;;;;;61.45;33.08;;;7.50;99.90;;;;;;5053315;28;20029;-79
2021/03/05 06:51:38;;;;;;;64.70;33.15;;;7.40;99.90;;;;;;5053488;28;20626;-79
2021/03/05 06:54:15;;;;;;;63.00;30.50;;;7.40;99.90;;;;;;5043972;28;20026;-79
2021/03/05 06:56:46;;;;;;;57.13;29.73;;;7.50;99.90;;;;;;5034418;28;20074;-78
2021/03/05 06:59:14;;;;;;;59.53;29.52;;;7.50;99.90;;;;;;5035080;28;20030;-79
2021/03/05 07:01:50;;;;;;;57.10;28.77;;;7.60;99.90;;;;;;5017441;28;20028;-79
2021/03/05 07:04:23;;;;;;;57.00;27.80;;;7.60;99.90;;;;;;5017199;28;20029;-79
2021/03/05 07:07:09;;;;;;;61.78;29.00;;;7.60;99.90;;;;;;5034834;28;20502;-79
2021/03/05 07:09:51;;;;;;;61.53;31.27;;;7.60;99.90;;;;;;5034806;28;20415;-79
2021/03/05 07:12:17;;;;;;;;;;;7.70;99.90;;;;;;5034221;28;20024;-79
2021/03/05 07:14:49;;;;;;;66.60;32.28;;;7.80;99.90;;;;;;5035080;28;20000;-79
2021/03/05 07:17:19;;;;;;;67.63;33.10;;;7.80;99.90;;;;;;5034295;28;20037;-79
2021/03/05 07:19:45;;;;;;;63.38;32.97;;;8.00;99.90;;;;;;5035012;28;20072;-79
2021/03/05 07:22:12;;;;;;;74.43;35.13;;;8.00;99.90;;;;;;5034835;28;20017;-79
2021/03/05 07:24:39;;;;;;;69.50;34.08;;;8.10;99.90;;;;;;5034750;28;20045;-78
2021/03/05 07:27:06;;;;;;;71.15;35.70;;;8.20;99.90;;;;;;5034302;28;20021;-79
2021/03/05 07:29:45;;;;;;;75.57;38.47;;;8.20;99.90;;;;;;5016867;28;20137;-79
2021/03/05 07:32:20;;;;;;;71.72;38.03;;;8.30;99.90;;;;;;5034577;28;20029;-80
2021/03/05 07:35:02;;;;;;;68.35;35.40;;;8.30;99.90;;;;;;5016836;28;20029;-80
2021/03/05 07:37:37;;;;;;;75.80;36.22;;;8.40;99.90;;;;;;5034453;28;20064;-80
2021/03/05 07:40:13;;;;;;;71.68;37.08;;;8.50;99.90;;;;;;5011377;28;20026;-82
2021/03/05 07:43:00;;;;;;;77.10;38.10;;;8.50;99.90;;;;;;4999043;28;20094;-80
2021/03/05 07:45:26;;;;;;;67.75;37.92;;;8.50;99.90;;;;;;5030879;28;20034;-80
2021/03/05 07:47:55;;;;;;;84.15;41.42;;;8.60;99.90;;;;;;5031638;28;20029;-80
2021/03/05 07:50:23;;;;;;;74.25;40.28;;;8.60;99.90;;;;;;5004455;28;20049;-80
2021/03/05 07:52:49;;;;;;;85.35;46.33;;;8.70;99.90;;;;;;5028057;28;20067;-79
2021/03/05 07:55:38;;;;;;;92.88;47.72;;;8.70;99.90;;;;;;5028488;28;20025;-79
2021/03/05 07:58:05;;;;;;;85.28;46.10;;;8.80;99.90;;;;;;5027295;28;20025;-80
2021/03/05 08:00:48;;;;;;;114.32;55.35;;;8.80;99.90;;;;;;4992021;28;20147;-79
2021/03/05 08:03:17;;;;;;;111.47;57.10;;;8.90;99.90;;;;;;4990649;28;20387;-78
2021/03/05 08:05:50;;;;;;;114.28;57.83;;;8.90;99.90;;;;;;4992897;28;20034;-79
2021/03/05 08:08:25;;;;;;;108.82;57.03;;;9.00;99.90;;;;;;5007157;28;20053;-80
2021/03/05 08:13:50;;;;;;;114.57;58.85;;;9.20;99.90;;;;;;4998639;28;20026;-80
2021/03/05 08:16:25;;;;;;;118.40;60.47;;;9.30;99.90;;;;;;5012825;28;20408;-79
2021/03/05 08:19:14;;;;;;;118.90;62.70;;;9.30;99.90;;;;;;5011380;28;20032;-79
2021/03/05 08:22:12;;;;;;;122.32;62.67;;;9.30;99.90;;;;;;5027410;28;20759;-79
2021/03/05 08:24:41;;;;;;;116.70;62.30;;;9.30;99.90;;;;;;5028858;28;20025;-78
2021/03/05 08:27:11;;;;;;;123.13;60.63;;;9.30;99.90;;;;;;5010289;28;20823;-79
2021/03/05 08:30:08;;;;;;;114.05;59.40;;;9.40;99.90;;;;;;5028766;28;20535;-79
2021/03/05 08:32:34;;;;;;;125.47;59.03;;;9.40;99.90;;;;;;5027652;28;20029;-79
2021/03/05 08:35:04;;;;;;;117.55;58.88;;;9.40;99.90;;;;;;5029021;28;20531;-79
2021/03/05 08:37:32;;;;;;;105.95;57.20;;;9.50;99.90;;;;;;5010387;28;20061;-79
2021/03/05 08:40:13;;;;;;;112.00;59.65;;;9.60;99.90;;;;;;5029315;28;20084;-79
2021/03/05 08:42:43;;;;;;;130.20;62.42;;;9.60;99.90;;;;;;5009911;28;20483;-79
2021/03/05 08:45:21;;;;;;;121.40;62.35;;;9.70;99.90;;;;;;5009666;28;20056;-79
2021/03/05 08:47:52;;;;;;;120.78;61.30;;;9.60;99.90;;;;;;5004261;28;20026;-79
2021/03/05 08:50:20;;;;;;;123.78;63.35;;;9.70;99.90;;;;;;5029240;28;20021;-79
2021/03/05 08:52:48;;;;;;;124.35;65.20;;;9.70;99.90;;;;;;5027343;28;20033;-79
2021/03/05 08:55:36;;;;;;;118.68;62.50;;;9.80;99.90;;;;;;5031029;28;20025;-79
2021/03/05 08:58:05;;;;;;;124.43;61.65;;;9.80;99.90;;;;;;5011447;28;20045;-79
2021/03/05 09:00:43;;;;;;;120.65;63.22;;;9.90;99.90;;;;;;5028571;28;20051;-80
2021/03/05 09:03:17;;;;;;;118.43;61.97;;;9.90;99.90;;;;;;5019806;28;20438;-79
2021/03/05 09:05:52;;;;;;;127.72;64.00;;;9.90;99.90;;;;;;5028197;28;20022;-79
2021/03/05 09:08:27;;;;;;;98.20;57.00;;;9.90;99.90;;;;;;5022368;28;20029;-81
2021/03/05 09:10:56;;;;;;;105.63;57.55;;;10.00;99.90;;;;;;5005811;28;20017;-79
2021/03/05 09:13:25;;;;;;;120.47;59.75;;;10.00;99.90;;;;;;5024064;28;20026;-78
2021/03/05 09:15:56;;;;;;;109.10;59.47;;;10.10;99.90;;;;;;5023610;28;20145;-81
2021/03/05 09:18:27;;;;;;;119.45;62.55;;;10.10;99.90;;;;;;5007585;28;20060;-79
2021/03/05 09:21:01;;;;;;;121.03;62.72;;;10.10;99.90;;;;;;5005783;28;20037;-80
2021/03/05 09:23:36;;;;;;;118.93;61.67;;;10.10;99.90;;;;;;5009834;28;20030;-80
2021/03/05 09:26:02;;;;;;;118.68;60.35;;;10.10;99.90;;;;;;5022142;28;20113;-81
2021/03/05 09:28:35;;;;;;;116.50;64.32;;;10.30;99.90;;;;;;5032246;28;20124;-82
2021/03/05 09:31:01;;;;;;;96.53;52.72;;;10.40;99.90;;;;;;5032527;28;20040;-79
2021/03/05 09:33:35;;;;;;;116.05;61.30;;;10.40;99.90;;;;;;5032698;28;20029;-77
2021/03/05 09:36:09;;;;;;;115.93;65.80;;;10.50;99.90;;;;;;5032407;28;20026;-77
2021/03/05 09:38:37;;;;;;;120.65;65.38;;;10.60;99.90;;;;;;5032121;28;20105;-78
2021/03/05 09:41:16;;;;;;;127.43;67.82;;;10.60;99.90;;;;;;5014243;28;20025;-78
2021/03/05 09:43:43;;;;;;;128.38;67.00;;;10.70;99.90;;;;;;4990888;28;20037;-77
2021/03/05 09:46:37;;;;;;;119.45;64.72;;;10.70;99.90;;;;;;5009393;28;20040;-78
2021/03/05 09:49:26;;;;;;;123.20;66.30;;;10.90;99.90;;;;;;5008647;28;20125;-77
2021/03/05 09:51:53;;;;;;;128.73;68.80;;;10.90;99.90;;;;;;5027268;28;20030;-75
2021/03/05 09:54:33;;;;;;;131.63;68.68;;;11.00;99.90;;;;;;5026879;28;20087;-76
2021/03/05 09:56:58;;;;;;;128.20;65.88;;;11.10;99.90;;;;;;5026376;28;20038;-77
2021/03/05 09:59:38;;;;;;;128.38;68.88;;;11.20;99.90;;;;;;5029921;28;20033;-75
2021/03/05 10:02:04;;;;;;;140.65;68.95;;;11.30;99.90;;;;;;5032004;28;20038;-75
2021/03/05 10:04:29;;;;;;;121.93;66.97;;;11.40;99.90;;;;;;5032155;28;20037;-75
2021/03/05 10:06:55;;;;;;;126.53;66.40;;;11.50;99.90;;;;;;5014228;28;20029;-78
2021/03/05 10:09:22;;;;;;;114.70;61.80;;;11.50;99.90;;;;;;5033598;28;20018;-77
2021/03/05 10:11:48;;;;;;;112.80;59.72;;;11.70;99.90;;;;;;5037118;28;20029;-77
2021/03/05 10:14:29;;;;;;;122.53;65.72;;;11.70;99.90;;;;;;5037960;28;20090;-75
2021/03/05 10:17:05;;;;;;;117.25;60.47;;;11.80;99.90;;;;;;5038183;28;20057;-75
2021/03/05 10:19:31;;;;;;;100.53;52.97;;;11.90;99.90;;;;;;5030741;28;20026;-75
2021/03/05 10:21:59;;;;;;;116.05;59.05;;;12.00;99.50;;;;;;5031818;28;20044;-75
2021/03/05 10:24:27;;;;;;;103.75;56.80;;;12.10;99.90;;;;;;5013672;28;20037;-75
2021/03/05 10:29:48;;;;;;;87.93;45.92;;;12.20;98.80;;;;;;5029322;28;20053;-75
2021/03/05 10:32:25;;;;;;;81.97;42.75;;;12.30;98.00;;;;;;5030468;28;20087;-75
2021/03/05 10:34:52;;;;;;;65.88;35.92;;;12.40;97.90;;;;;;5015414;28;20031;-75
2021/03/05 10:37:18;;;;;;;67.45;36.20;;;12.60;95.90;;;;;;5038390;28;20367;-76
2021/03/05 10:39:46;;;;;;;66.05;37.50;;;12.50;94.20;;;;;;5028988;28;20117;-76
2021/03/05 10:42:17;;;;;;;73.22;37.35;;;12.50;94.90;;;;;;5029704;28;20083;-75
2021/03/05 10:44:44;;;;;;;61.95;35.45;;;12.60;95.70;;;;;;5028850;28;20040;-75
2021/03/05 10:47:12;;;;;;;60.38;30.17;;;12.70;94.10;;;;;;5028741;28;20075;-75
2021/03/05 10:49:42;;;;;;;50.78;26.52;;;12.80;93.00;;;;;;5011591;28;20022;-77
2021/03/05 10:52:12;;;;;;;46.17;24.30;;;12.80;92.50;;;;;;5011626;28;20056;-75
2021/03/05 10:54:43;;;;;;;50.50;24.05;;;12.90;91.40;;;;;;5010315;28;20032;-77
2021/03/05 10:57:13;;;;;;;48.00;24.10;;;13.00;90.90;;;;;;5026937;28;20040;-77
2021/03/05 10:59:40;;;;;;;49.38;25.38;;;13.10;92.30;;;;;;5027791;28;20055;-75
2021/03/05 11:02:06;;;;;;;57.47;25.98;;;13.20;91.50;;;;;;5028128;28;20096;-77
2021/03/05 11:04:31;;;;;;;47.33;23.77;;;13.20;90.70;;;;;;5027814;28;20660;-74
2021/03/05 11:06:57;;;;;;;44.40;23.45;;;13.30;91.30;;;;;;5008630;28;20037;-77
2021/03/05 11:09:26;;;;;;;43.78;22.80;;;13.40;90.70;;;;;;5014216;28;20028;-78
2021/03/05 11:11:52;;;;;;;44.10;21.92;;;13.40;90.70;;;;;;5032176;28;20029;-77
2021/03/05 11:14:18;;;;;;;46.97;21.80;;;13.30;90.60;;;;;;5028282;28;20022;-77
2021/03/05 11:16:44;;;;;;;45.63;22.40;;;13.40;91.10;;;;;;5009754;28;20123;-77
2021/03/05 11:19:10;;;;;;;37.58;21.55;;;13.50;90.10;;;;;;5029038;28;20022;-75
2021/03/05 11:21:36;;;;;;;41.17;21.58;;;13.60;88.60;;;;;;5026380;28;20088;-77
2021/03/05 11:24:02;;;;;;;44.10;22.08;;;13.60;88.20;;;;;;5010185;28;20029;-75
2021/03/05 11:26:28;;;;;;;45.22;21.95;;;13.60;87.10;;;;;;5026569;28;20052;-74
2021/03/05 11:28:54;;;;;;;39.60;21.73;;;13.60;87.70;;;;;;5010150;28;20080;-75
2021/03/05 11:31:21;;;;;;;40.35;22.40;;;13.60;87.30;;;;;;5028844;28;20029;-75
2021/03/05 11:33:46;;;;;;;42.55;22.10;;;13.70;87.40;;;;;;5028435;28;20113;-75
2021/03/05 11:36:13;;;;;;;42.58;21.40;;;13.70;86.60;;;;;;5027109;28;20104;-77
2021/03/05 11:38:51;;;;;;;38.47;19.83;;;13.70;87.30;;;;;;5009807;28;20034;-78
2021/03/05 11:41:17;;;;;;;54.03;21.48;;;13.80;86.80;;;;;;5027678;28;20049;-77
2021/03/05 11:43:46;;;;;;;42.33;20.95;;;13.80;86.90;;;;;;5027281;28;20040;-77
2021/03/05 11:46:12;;;;;;;42.53;21.90;;;13.90;87.60;;;;;;5003136;28;20368;-77
2021/03/05 11:48:38;;;;;;;39.75;21.50;;;13.80;87.40;;;;;;5017300;28;20029;-77
2021/03/05 11:51:04;;;;;;;38.00;20.30;;;13.90;87.20;;;;;;5005372;28;20108;-77
2021/03/05 11:53:30;;;;;;;48.95;23.20;;;13.90;87.70;;;;;;4994225;28;20040;-78
2021/03/05 11:55:55;;;;;;;46.95;23.23;;;13.90;87.60;;;;;;5020078;28;20647;-77
2021/03/05 11:58:21;;;;;;;47.97;22.63;;;14.00;87.50;;;;;;5024976;28;20099;-75
2021/03/05 12:00:48;;;;;;;46.65;24.73;;;14.10;87.50;;;;;;5021628;28;20132;-74
2021/03/05 12:03:14;;;;;;;46.80;23.60;;;14.10;86.90;;;;;;5024648;28;20113;-78
2021/03/05 12:05:40;;;;;;;48.38;23.25;;;14.20;87.50;;;;;;5018903;28;20116;-77
2021/03/05 12:08:06;;;;;;;49.38;22.27;;;14.20;86.70;;;;;;5019072;28;20041;-75
2021/03/05 12:10:31;;;;;;;37.97;22.48;;;14.20;87.00;;;;;;5030173;28;20052;-77
2021/03/05 12:12:57;;;;;;;40.80;21.50;;;14.30;88.60;;;;;;5008989;28;20041;-77
2021/03/05 12:15:23;;;;;;;41.88;22.27;;;14.40;87.20;;;;;;5023938;28;20480;-77
2021/03/05 12:17:48;;;;;;;54.78;22.58;;;14.50;88.10;;;;;;5022083;28;20387;-76
2021/03/05 12:20:14;;;;;;;43.53;22.67;;;14.50;88.00;;;;;;5021635;28;20029;-76
2021/03/05 12:22:40;;;;;;;56.10;23.27;;;14.60;87.90;;;;;;5017337;28;20112;-77
2021/03/05 12:25:07;;;;;;;39.47;24.38;;;14.70;86.90;;;;;;5024513;28;20017;-76
2021/03/05 12:27:33;;;;;;;44.80;23.35;;;14.70;87.90;;;;;;5016204;28;20017;-77
2021/03/05 12:30:00;;;;;;;41.42;22.02;;;14.70;87.60;;;;;;5016583;28;20168;-77
2021/03/05 12:32:25;;;;;;;43.22;22.60;;;14.70;87.70;;;;;;5022147;28;20049;-77
2021/03/05 12:34:51;;;;;;;41.78;22.73;;;14.70;88.30;;;;;;5029830;28;20730;-77
2021/03/05 12:37:17;;;;;;;43.75;22.55;;;14.70;88.10;;;;;;5013383;28;20427;-77
2021/03/05 12:39:43;;;;;;;47.50;21.95;;;14.80;88.60;;;;;;5003003;28;20616;-76
2021/03/05 12:42:09;;;;;;;47.50;22.15;;;14.80;89.10;;;;;;5020603;28;20033;-77
2021/03/05 12:44:35;;;;;;;39.53;22.77;;;14.80;88.80;;;;;;5027111;28;20127;-77
2021/03/05 12:47:01;;;;;;;39.28;21.50;;;14.90;90.20;;;;;;5021592;28;20033;-76
2021/03/05 12:49:27;;;;;;;41.58;20.60;;;14.90;89.40;;;;;;5018157;28;20104;-76